Time;durP1;ratioP1;P1;durP2;ratioP2;P2;SDS_P1;SDS_P2;PMS_P1;PMS_P2;Temp;Humidity;BMP_temperature;BMP_pressure;BME280_temperature;BME280_humidity;BME280_pressure;Samples;Min_cycle;Max_cycle;Signal;HPM_P1;HPM_P2
2022/05/18 00:02:00;;;;;;;9.10;5.88;;;;;;;;;;5052950;28;20115;-85
2022/05/18 00:04:29;;;;;;;12.35;5.70;;;;;;;;;;5036901;28;20063;-85
2022/05/18 00:06:55;;;;;;;8.57;5.38;;;;;;;;;;5063391;28;20051;-85
2022/05/18 00:09:21;;;;;;;11.30;5.13;;;;;;;;;;5055011;28;20056;-85
2022/05/18 00:11:47;;;;;;;7.53;4.97;;;;;;;;;;5064793;28;20112;-85
2022/05/18 00:14:13;;;;;;;7.32;5.43;;;;;;;;;;5065034;28;20132;-86
2022/05/18 00:16:39;;;;;;;7.20;5.00;;;;;;;;;;5066215;28;20501;-85
2022/05/18 00:19:05;;;;;;;6.63;5.05;;;;;;;;;;5064550;28;20052;-86
2022/05/18 00:21:32;;;;;;;11.52;5.20;;;;;;;;;;5030737;28;20182;-85
2022/05/18 00:23:58;;;;;;;8.30;5.53;;;;;;;;;;5038164;28;20040;-85
2022/05/18 00:26:25;;;;;;;9.13;5.50;;;;;;;;;;5061866;28;20041;-86
2022/05/18 00:28:51;;;;;;;9.55;5.20;;;;;;;;;;5036615;28;20033;-86
2022/05/18 00:31:18;;;;;;;10.85;5.55;;;;;;;;;;5062898;28;20407;-85
2022/05/18 00:33:44;;;;;;;8.45;5.22;;;;;;;;;;5064544;28;20036;-86
2022/05/18 00:36:11;;;;;;;7.15;5.05;;;;;;;;;;5047162;28;20047;-85
2022/05/18 00:38:37;;;;;;;7.95;5.35;;;;;;;;;;5037451;28;20059;-85
2022/05/18 00:41:03;;;;;;;10.60;5.05;;;;;;;;;;5065062;28;20037;-85
2022/05/18 00:43:29;;;;;;;7.43;4.95;;;;;;;;;;5053104;28;20044;-86
2022/05/18 00:45:55;;;;;;;7.95;5.05;;;;;;;;;;5063925;28;20159;-85
2022/05/18 00:48:21;;;;;;;8.98;5.80;;;;;;;;;;5030736;28;20045;-85
2022/05/18 00:50:48;;;;;;;7.10;4.70;;;;;;;;;;5027899;28;20036;-84
2022/05/18 00:53:17;;;;;;;14.68;5.72;;;;;;;;;;5029935;28;20051;-85
2022/05/18 00:55:44;;;;;;;9.00;5.18;;;;;;;;;;5038355;28;20667;-85
2022/05/18 00:58:13;;;;;;;9.73;5.18;;;;;;;;;;5046905;28;20079;-86
2022/05/18 01:00:39;;;;;;;6.78;5.25;;;;;;;;;;5037268;28;20070;-85
2022/05/18 01:03:11;;;;;;;8.50;5.30;;;;;;;;;;5055964;28;20037;-86
2022/05/18 01:05:38;;;;;;;10.30;4.97;;;;;;;;;;5056112;28;20091;-86
2022/05/18 01:08:04;;;;;;;6.90;4.68;;;;;;;;;;5055768;28;20063;-85
2022/05/18 01:10:30;;;;;;;8.65;4.60;;;;;;;;;;5055880;28;20119;-85
2022/05/18 01:13:02;;;;;;;9.73;5.35;;;;;;;;;;5056069;28;20114;-86
2022/05/18 01:15:29;;;;;;;9.48;5.80;;;;;;;;;;5055194;28;20376;-85
2022/05/18 01:17:59;;;;;;;7.57;5.15;;;;;;;;;;5055406;28;20067;-86
2022/05/18 01:20:30;;;;;;;7.63;5.45;;;;;;;;;;5056022;28;20090;-85
2022/05/18 01:23:08;;;;;;;11.23;5.50;;;;;;;;;;5055985;28;20051;-86
2022/05/18 01:25:41;;;;;;;6.65;5.43;;;;;;;;;;5055870;28;20507;-85
2022/05/18 01:28:07;;;;;;;8.35;6.00;;;;;;;;;;5072285;28;20055;-86
2022/05/18 01:30:34;;;;;;;8.45;5.20;;;;;;;;;;5055521;28;20041;-85
2022/05/18 01:33:00;;;;;;;8.43;5.47;;;;;;;;;;5055507;28;20032;-85
2022/05/18 01:35:28;;;;;;;8.48;6.28;;;;;;;;;;5055615;28;20484;-85
2022/05/18 01:37:59;;;;;;;9.93;5.80;;;;;;;;;;5055514;28;20048;-86
2022/05/18 01:40:34;;;;;;;10.75;5.75;;;;;;;;;;5055214;28;20405;-85
2022/05/18 01:43:23;;;;;;;7.55;5.53;;;;;;;;;;5055340;28;20044;-85
2022/05/18 01:45:50;;;;;;;11.30;5.68;;;;;;;;;;5027881;28;20044;-85
2022/05/18 01:48:17;;;;;;;7.05;5.10;;;;;;;;;;5038530;28;20163;-85
2022/05/18 01:50:43;;;;;;;10.77;5.22;;;;;;;;;;5055216;28;20041;-86
2022/05/18 01:53:10;;;;;;;10.98;6.13;;;;;;;;;;5055287;28;20036;-86
2022/05/18 01:55:36;;;;;;;9.77;5.65;;;;;;;;;;5054880;28;20123;-85
2022/05/18 01:58:03;;;;;;;7.50;5.22;;;;;;;;;;5054795;28;20135;-85
2022/05/18 02:00:29;;;;;;;8.70;5.28;;;;;;;;;;5054812;28;20136;-85
2022/05/18 02:02:55;;;;;;;8.60;5.70;;;;;;;;;;5054808;28;20040;-85
2022/05/18 02:05:21;;;;;;;10.02;5.30;;;;;;;;;;5054769;28;20056;-86
2022/05/18 02:07:47;;;;;;;9.82;5.55;;;;;;;;;;5054419;28;20102;-85
2022/05/18 02:10:13;;;;;;;8.90;5.68;;;;;;;;;;5054618;28;20040;-86
2022/05/18 02:12:39;;;;;;;8.57;5.38;;;;;;;;;;5038180;28;20174;-85
2022/05/18 02:15:06;;;;;;;9.85;5.60;;;;;;;;;;5037971;28;20123;-85
2022/05/18 02:17:32;;;;;;;10.15;5.20;;;;;;;;;;5037865;28;20496;-85
2022/05/18 02:19:58;;;;;;;8.68;5.88;;;;;;;;;;5054683;28;20079;-85
2022/05/18 02:22:25;;;;;;;9.07;5.97;;;;;;;;;;5054621;28;20037;-85
2022/05/18 02:24:51;;;;;;;7.47;5.57;;;;;;;;;;5054262;28;20048;-85
2022/05/18 02:27:18;;;;;;;7.00;5.30;;;;;;;;;;5054221;28;20044;-86
2022/05/18 02:29:44;;;;;;;6.55;4.55;;;;;;;;;;5054436;28;20041;-85
2022/05/18 02:32:10;;;;;;;8.55;5.57;;;;;;;;;;5054439;28;20086;-85
2022/05/18 02:34:37;;;;;;;11.32;5.28;;;;;;;;;;5054247;28;20040;-85
2022/05/18 02:37:03;;;;;;;10.18;5.25;;;;;;;;;;5054076;28;20037;-85
2022/05/18 02:39:29;;;;;;;9.38;5.35;;;;;;;;;;5054087;28;20048;-85
2022/05/18 02:41:55;;;;;;;13.27;5.32;;;;;;;;;;5054289;28;20047;-85
2022/05/18 02:44:22;;;;;;;8.10;5.95;;;;;;;;;;5053929;28;20040;-85
2022/05/18 02:46:48;;;;;;;7.63;5.50;;;;;;;;;;5053938;28;20131;-85
2022/05/18 02:49:15;;;;;;;10.00;6.15;;;;;;;;;;5053935;28;20051;-85
2022/05/18 02:51:41;;;;;;;8.05;5.68;;;;;;;;;;5054240;28;20049;-85
2022/05/18 02:56:53;;;;;;;9.30;5.63;;;;;;;;;;5054103;28;20044;-85
2022/05/18 02:59:20;;;;;;;8.85;5.78;;;;;;;;;;5053752;28;20495;-85
2022/05/18 03:01:46;;;;;;;8.07;5.32;;;;;;;;;;5054067;28;20098;-84
2022/05/18 03:04:12;;;;;;;10.43;6.25;;;;;;;;;;5053896;28;20087;-85
2022/05/18 03:06:38;;;;;;;10.85;5.85;;;;;;;;;;5053565;28;20045;-85
2022/05/18 03:09:04;;;;;;;12.88;5.55;;;;;;;;;;5053559;28;20393;-85
2022/05/18 03:11:31;;;;;;;12.73;5.82;;;;;;;;;;5054070;28;20039;-85
2022/05/18 03:13:57;;;;;;;8.43;5.85;;;;;;;;;;5053778;28;20071;-85
2022/05/18 03:16:24;;;;;;;7.47;5.55;;;;;;;;;;5053587;28;20082;-85
2022/05/18 03:18:50;;;;;;;9.15;4.97;;;;;;;;;;5053667;28;20385;-85
2022/05/18 03:24:00;;;;;;;9.65;6.40;;;;;;;;;;5053693;28;20411;-84
2022/05/18 03:26:26;;;;;;;10.85;6.43;;;;;;;;;;5053685;28;20047;-85
2022/05/18 03:28:56;;;;;;;9.02;6.50;;;;;;;;;;5053687;28;20040;-85
2022/05/18 03:31:26;;;;;;;8.32;5.93;;;;;;;;;;5053578;28;20405;-85
2022/05/18 03:33:54;;;;;;;10.75;5.63;;;;;;;;;;5053738;28;20041;-85
2022/05/18 03:36:20;;;;;;;8.50;5.63;;;;;;;;;;5053765;28;20044;-85
2022/05/18 03:38:47;;;;;;;11.00;6.57;;;;;;;;;;5053881;28;20186;-85
2022/05/18 03:41:14;;;;;;;7.57;5.90;;;;;;;;;;5056773;28;20037;-85
2022/05/18 03:43:40;;;;;;;10.35;6.15;;;;;;;;;;5057474;28;20044;-85
2022/05/18 03:46:06;;;;;;;11.25;6.45;;;;;;;;;;5057654;28;20036;-86
2022/05/18 03:48:33;;;;;;;13.45;5.70;;;;;;;;;;5057634;28;20036;-85
2022/05/18 03:50:59;;;;;;;9.65;6.35;;;;;;;;;;5057382;28;20078;-85
2022/05/18 03:53:26;;;;;;;10.20;6.47;;;;;;;;;;5057300;28;20044;-85
2022/05/18 03:55:52;;;;;;;13.35;5.90;;;;;;;;;;5057123;28;20131;-85
2022/05/18 03:58:18;;;;;;;11.77;5.80;;;;;;;;;;5057293;28;20040;-85
2022/05/18 04:00:45;;;;;;;9.25;6.45;;;;;;;;;;5057073;28;20036;-86
2022/05/18 04:03:12;;;;;;;9.38;5.30;;;;;;;;;;5057261;28;20578;-87
2022/05/18 04:05:40;;;;;;;13.65;6.28;;;;;;;;;;5057143;28;20036;-86
2022/05/18 04:08:06;;;;;;;8.57;6.03;;;;;;;;;;5056848;28;20447;-86
2022/05/18 04:10:32;;;;;;;9.68;6.00;;;;;;;;;;5057057;28;20048;-86
2022/05/18 04:12:59;;;;;;;10.48;6.22;;;;;;;;;;5057097;28;20033;-85
2022/05/18 04:15:25;;;;;;;10.30;6.18;;;;;;;;;;5056905;28;20037;-87
2022/05/18 04:17:51;;;;;;;8.75;6.15;;;;;;;;;;5056904;28;20087;-86
2022/05/18 04:20:18;;;;;;;9.23;6.30;;;;;;;;;;5040276;28;20036;-85
2022/05/18 04:22:44;;;;;;;14.43;6.03;;;;;;;;;;5039840;28;20049;-86
2022/05/18 04:25:12;;;;;;;8.93;5.93;;;;;;;;;;5056772;28;20056;-86
2022/05/18 04:27:38;;;;;;;8.77;5.68;;;;;;;;;;5056655;28;20036;-87
2022/05/18 04:30:05;;;;;;;10.45;6.60;;;;;;;;;;5056602;28;20075;-86
2022/05/18 04:32:30;;;;;;;10.30;6.32;;;;;;;;;;5056343;28;20036;-85
2022/05/18 04:34:56;;;;;;;7.72;5.55;;;;;;;;;;5056865;28;20507;-86
2022/05/18 04:37:22;;;;;;;9.48;6.03;;;;;;;;;;5056464;28;20043;-85
2022/05/18 04:39:48;;;;;;;11.70;6.65;;;;;;;;;;5056510;28;20409;-85
2022/05/18 04:42:14;;;;;;;7.40;6.05;;;;;;;;;;5056672;28;20399;-85
2022/05/18 04:44:41;;;;;;;12.55;6.38;;;;;;;;;;5060990;28;20032;-85
2022/05/18 04:47:07;;;;;;;9.07;6.13;;;;;;;;;;5061379;28;20045;-84
2022/05/18 04:49:33;;;;;;;10.13;6.00;;;;;;;;;;5061470;28;20033;-85
2022/05/18 04:52:00;;;;;;;10.60;6.78;;;;;;;;;;5043875;28;20123;-84
2022/05/18 04:54:26;;;;;;;10.10;6.07;;;;;;;;;;5037400;28;20047;-87
2022/05/18 04:56:52;;;;;;;13.10;5.50;;;;;;;;;;5052744;28;20032;-85
2022/05/18 04:59:18;;;;;;;9.27;6.05;;;;;;;;;;5036876;28;20040;-85
2022/05/18 05:01:44;;;;;;;8.27;5.68;;;;;;;;;;5055075;28;20441;-85
2022/05/18 05:04:13;;;;;;;11.15;5.13;;;;;;;;;;5063534;28;20446;-84
2022/05/18 05:06:40;;;;;;;9.05;4.95;;;;;;;;;;5061397;28;20377;-87
2022/05/18 05:09:07;;;;;;;9.43;5.55;;;;;;;;;;5053742;28;20118;-82
2022/05/18 05:11:33;;;;;;;7.07;5.10;;;;;;;;;;5052302;28;20035;-87
2022/05/18 05:13:59;;;;;;;11.07;7.95;;;;;;;;;;5067848;28;20032;-84
2022/05/18 05:16:28;;;;;;;8.00;7.20;;;;;;;;;;5036111;28;20135;-85
2022/05/18 05:18:54;;;;;;;9.43;7.65;;;;;;;;;;5068756;28;20449;-85
2022/05/18 05:21:20;;;;;;;10.15;8.18;;;;;;;;;;5035917;28;20484;-87
2022/05/18 05:23:46;;;;;;;8.05;6.45;;;;;;;;;;5069112;28;20079;-84
2022/05/18 05:26:12;;;;;;;6.03;5.43;;;;;;;;;;5035891;28;20044;-86
2022/05/18 05:28:38;;;;;;;9.73;8.32;;;;;;;;;;5068693;28;20131;-85
2022/05/18 05:31:06;;;;;;;8.18;7.35;;;;;;;;;;5035495;28;20044;-87
2022/05/18 05:33:32;;;;;;;10.32;9.32;;;;;;;;;;5068599;28;20036;-84
2022/05/18 05:35:58;;;;;;;9.40;6.63;;;;;;;;;;5035093;28;20042;-85
2022/05/18 05:38:25;;;;;;;6.88;6.05;;;;;;;;;;5035491;28;20043;-84
2022/05/18 05:40:55;;;;;;;10.25;9.15;;;;;;;;;;5070612;28;20048;-86
2022/05/18 05:43:21;;;;;;;9.90;7.23;;;;;;;;;;5038829;28;20032;-87
2022/05/18 05:46:00;;;;;;;9.38;6.55;;;;;;;;;;5073024;28;20279;-84
2022/05/18 05:48:27;;;;;;;12.70;8.75;;;;;;;;;;5038300;28;20045;-83
2022/05/18 05:50:53;;;;;;;10.40;9.05;;;;;;;;;;5038726;28;20043;-85
2022/05/18 05:53:19;;;;;;;13.80;8.60;;;;;;;;;;5038031;28;20032;-86
2022/05/18 05:55:45;;;;;;;9.40;8.50;;;;;;;;;;5071284;28;20040;-84
2022/05/18 05:58:11;;;;;;;8.93;8.13;;;;;;;;;;5071245;28;20044;-86
2022/05/18 06:00:37;;;;;;;10.02;8.48;;;;;;;;;;5039718;28;20072;-86
2022/05/18 06:03:03;;;;;;;8.65;7.75;;;;;;;;;;5072385;28;20047;-84
2022/05/18 06:05:30;;;;;;;9.73;8.18;;;;;;;;;;5037963;28;20062;-87
2022/05/18 06:07:56;;;;;;;10.57;8.45;;;;;;;;;;5037652;28;20060;-86
2022/05/18 06:10:22;;;;;;;9.45;8.45;;;;;;;;;;5071162;28;20127;-86
2022/05/18 06:12:48;;;;;;;9.55;8.63;;;;;;;;;;5054791;28;20498;-86
2022/05/18 06:15:14;;;;;;;10.43;8.57;;;;;;;;;;5071189;28;20059;-85
2022/05/18 06:17:40;;;;;;;10.20;8.32;;;;;;;;;;5070948;28;20048;-85
2022/05/18 06:20:06;;;;;;;9.60;8.60;;;;;;;;;;5071164;28;20139;-86
2022/05/18 06:22:35;;;;;;;9.10;8.13;;;;;;;;;;5054967;28;20483;-85
2022/05/18 06:25:01;;;;;;;9.40;8.50;;;;;;;;;;5070723;28;20047;-86
2022/05/18 06:27:27;;;;;;;8.75;7.85;;;;;;;;;;5037653;28;20098;-84
2022/05/18 06:29:53;;;;;;;8.90;8.00;;;;;;;;;;5070972;28;20037;-87
2022/05/18 06:32:19;;;;;;;10.10;8.55;;;;;;;;;;5037580;28;20039;-85
2022/05/18 06:34:45;;;;;;;11.38;8.25;;;;;;;;;;5054059;28;20032;-86
2022/05/18 06:37:12;;;;;;;9.27;8.10;;;;;;;;;;5070519;28;20056;-85
2022/05/18 06:39:38;;;;;;;9.48;8.60;;;;;;;;;;5070811;28;20047;-86
2022/05/18 06:42:05;;;;;;;9.88;8.88;;;;;;;;;;5037273;28;20094;-87
2022/05/18 06:44:31;;;;;;;9.68;8.75;;;;;;;;;;5070642;28;20040;-86
2022/05/18 06:47:01;;;;;;;9.63;8.73;;;;;;;;;;5070425;28;20040;-86
2022/05/18 06:49:28;;;;;;;10.40;8.60;;;;;;;;;;5037584;28;20040;-84
2022/05/18 06:51:56;;;;;;;9.80;8.80;;;;;;;;;;5053300;28;20032;-84
2022/05/18 06:54:22;;;;;;;9.90;8.88;;;;;;;;;;5037133;28;20067;-87
2022/05/18 06:56:48;;;;;;;10.07;9.05;;;;;;;;;;5037022;28;20123;-85
2022/05/18 06:59:15;;;;;;;8.60;7.78;;;;;;;;;;5037151;28;20128;-84
2022/05/18 07:01:41;;;;;;;9.23;8.38;;;;;;;;;;5070375;28;20079;-86
2022/05/18 07:04:09;;;;;;;9.43;8.55;;;;;;;;;;5070289;28;20047;-85
2022/05/18 07:06:37;;;;;;;9.85;8.82;;;;;;;;;;5036813;28;20495;-86
2022/05/18 07:09:07;;;;;;;9.73;8.73;;;;;;;;;;5037200;28;20079;-85
2022/05/18 07:11:36;;;;;;;10.05;8.65;;;;;;;;;;5037229;28;20044;-87
2022/05/18 07:14:02;;;;;;;9.85;8.93;;;;;;;;;;5053016;28;20037;-87
2022/05/18 07:16:28;;;;;;;8.27;7.50;;;;;;;;;;5037271;28;20076;-85
2022/05/18 07:18:55;;;;;;;9.23;8.32;;;;;;;;;;5037143;28;20055;-84
2022/05/18 07:21:21;;;;;;;8.63;7.55;;;;;;;;;;5053644;28;20048;-86
2022/05/18 07:23:48;;;;;;;9.95;8.70;;;;;;;;;;5070219;28;20507;-85
2022/05/18 07:26:14;;;;;;;9.65;8.70;;;;;;;;;;5037052;28;20131;-85
2022/05/18 07:28:40;;;;;;;9.88;8.85;;;;;;;;;;5053713;28;20028;-85
2022/05/18 07:31:07;;;;;;;9.80;8.80;;;;;;;;;;5053550;28;20032;-85
2022/05/18 07:33:33;;;;;;;9.52;8.48;;;;;;;;;;5037066;28;20102;-85
2022/05/18 07:35:59;;;;;;;9.63;8.63;;;;;;;;;;5036146;28;20039;-83
2022/05/18 07:38:26;;;;;;;11.75;8.85;;;;;;;;;;5061545;28;20171;-85
2022/05/18 07:40:52;;;;;;;8.93;7.72;;;;;;;;;;5034738;28;20115;-83
2022/05/18 07:43:18;;;;;;;11.15;9.60;;;;;;;;;;5060355;28;20131;-85
2022/05/18 07:45:45;;;;;;;9.75;8.73;;;;;;;;;;5058880;28;20040;-83
2022/05/18 07:48:11;;;;;;;10.32;8.80;;;;;;;;;;5034617;28;20041;-84
2022/05/18 07:50:37;;;;;;;10.95;8.32;;;;;;;;;;5052409;28;20446;-85
2022/05/18 07:53:03;;;;;;;10.50;8.85;;;;;;;;;;5058859;28;20396;-84
2022/05/18 07:55:29;;;;;;;9.15;8.25;;;;;;;;;;5051342;28;20037;-85
2022/05/18 07:57:55;;;;;;;8.93;8.02;;;;;;;;;;5057633;28;20063;-87
2022/05/18 08:00:23;;;;;;;9.73;8.63;;;;;;;;;;5042210;28;20040;-85
2022/05/18 08:02:49;;;;;;;8.85;8.05;;;;;;;;;;5034295;28;20033;-87
2022/05/18 08:05:16;;;;;;;9.27;8.30;;;;;;;;;;5024359;28;20132;-86
2022/05/18 08:07:45;;;;;;;9.82;8.07;;;;;;;;;;5025547;28;20040;-83
2022/05/18 08:15:42;;;;;;;9.00;8.10;;;;;;;;;;5050066;28;20076;-85
2022/05/18 08:18:08;;;;;;;9.10;7.18;;;;;;;;;;5060254;28;20098;-86
2022/05/18 08:20:37;;;;;;;7.85;7.00;;;;;;;;;;5035530;28;20514;-84
2022/05/18 08:23:03;;;;;;;7.63;6.68;;;;;;;;;;5058839;28;20055;-86
2022/05/18 08:25:29;;;;;;;7.50;6.35;;;;;;;;;;5035501;28;20044;-85
2022/05/18 08:27:55;;;;;;;8.65;7.70;;;;;;;;;;5060288;28;20037;-84
2022/05/18 08:30:22;;;;;;;7.75;6.90;;;;;;;;;;5036458;28;20040;-84
2022/05/18 08:32:50;;;;;;;10.45;6.13;;;;;;;;;;5061328;28;20032;-87
2022/05/18 08:35:16;;;;;;;7.88;6.25;;;;;;;;;;5055605;28;20047;-86
2022/05/18 08:37:43;;;;;;;6.95;5.85;;;;;;;;;;5029383;28;20040;-87
2022/05/18 08:40:14;;;;;;;7.78;6.63;;;;;;;;;;5036964;28;20051;-84
2022/05/18 08:42:41;;;;;;;6.40;5.80;;;;;;;;;;5036936;28;20037;-87
2022/05/18 08:45:08;;;;;;;6.13;5.47;;;;;;;;;;5030810;28;20124;-82
2022/05/18 08:47:48;;;;;;;5.40;4.40;;;;;;;;;;5038345;28;20036;-86
2022/05/18 08:50:15;;;;;;;5.18;4.57;;;;;;;;;;5063580;28;20586;-87
2022/05/18 08:53:03;;;;;;;5.63;4.38;;;;;;;;;;5063673;28;20041;-89
2022/05/18 08:55:48;;;;;;;5.57;4.60;;;;;;;;;;5062972;28;20480;-91
2022/05/18 08:58:19;;;;;;;6.25;5.13;;;;;;;;;;5063033;28;20407;-88
2022/05/18 09:00:47;;;;;;;4.82;4.28;;;;;;;;;;5045220;28;20051;-87
2022/05/18 09:03:18;;;;;;;5.28;4.35;;;;;;;;;;5035862;28;20036;-86
2022/05/18 09:05:59;;;;;;;6.32;5.22;;;;;;;;;;5063432;28;20778;-84
2022/05/18 09:08:28;;;;;;;5.18;4.55;;;;;;;;;;5053341;28;20113;-84
2022/05/18 09:10:54;;;;;;;5.27;4.40;;;;;;;;;;5037901;28;20036;-87
2022/05/18 09:13:20;;;;;;;4.57;4.15;;;;;;;;;;5033436;28;20284;-92
2022/05/18 09:16:05;;;;;;;6.03;3.85;;;;;;;;;;5053374;28;20546;-89
2022/05/18 09:18:37;;;;;;;6.38;4.10;;;;;;;;;;5063612;28;20098;-88
2022/05/18 09:21:24;;;;;;;4.70;4.20;;;;;;;;;;5064210;28;20036;-89
2022/05/18 09:23:50;;;;;;;6.28;4.32;;;;;;;;;;5028136;28;20033;-89
2022/05/18 09:26:17;;;;;;;6.32;4.80;;;;;;;;;;5029250;28;20045;-89
2022/05/18 09:28:49;;;;;;;7.55;4.50;;;;;;;;;;5034117;28;20044;-88
2022/05/18 09:31:33;;;;;;;5.32;4.82;;;;;;;;;;5057001;28;20075;-93
2022/05/18 09:34:08;;;;;;;8.35;5.28;;;;;;;;;;5036680;28;20032;-86
2022/05/18 09:36:53;;;;;;;6.60;5.50;;;;;;;;;;5035839;28;20507;-87
2022/05/18 09:39:21;;;;;;;6.20;5.60;;;;;;;;;;5049223;28;20037;-88
2022/05/18 09:41:49;;;;;;;5.32;4.85;;;;;;;;;;5062695;28;20391;-89
2022/05/18 09:44:22;;;;;;;6.78;5.53;;;;;;;;;;5052897;28;20037;-93
2022/05/18 09:46:48;;;;;;;10.13;5.95;;;;;;;;;;5060605;28;20045;-85
2022/05/18 09:49:24;;;;;;;6.40;4.80;;;;;;;;;;5034976;28;20033;-89
2022/05/18 09:51:50;;;;;;;7.05;5.10;;;;;;;;;;5035144;28;20034;-88
2022/05/18 09:54:16;;;;;;;7.40;4.85;;;;;;;;;;5031753;28;20055;-85
2022/05/18 09:56:46;;;;;;;5.93;4.85;;;;;;;;;;5033862;28;20483;-92
2022/05/18 09:59:14;;;;;;;6.63;5.82;;;;;;;;;;5033822;28;20058;-87
2022/05/18 10:07:32;;;;;;;6.38;5.80;;;;;;;;;;5051272;28;20419;-88
2022/05/18 10:10:12;;;;;;;8.20;5.97;;;;;;;;;;5033952;28;20080;-89
2022/05/18 10:12:46;;;;;;;9.70;6.30;;;;;;;;;;5032787;28;20492;-88
2022/05/18 10:15:20;;;;;;;7.50;5.22;;;;;;;;;;5034686;28;20124;-89
2022/05/18 10:17:51;;;;;;;7.00;6.22;;;;;;;;;;5033822;28;20413;-88
2022/05/18 10:20:23;;;;;;;8.20;5.50;;;;;;;;;;5031229;28;20037;-89
2022/05/18 10:22:49;;;;;;;6.88;6.28;;;;;;;;;;5035416;28;20123;-87
2022/05/18 10:25:34;;;;;;;7.70;6.10;;;;;;;;;;5049972;28;20079;-90
2022/05/18 10:28:03;;;;;;;7.78;5.88;;;;;;;;;;5050719;28;20396;-90
2022/05/18 10:30:32;;;;;;;10.32;6.53;;;;;;;;;;5033455;28;20040;-89
2022/05/18 10:33:06;;;;;;;7.47;6.10;;;;;;;;;;5058584;28;20040;-92
2022/05/18 10:35:35;;;;;;;8.48;6.18;;;;;;;;;;5031648;28;20098;-89
2022/05/18 10:38:02;;;;;;;5.88;5.30;;;;;;;;;;5051971;28;20037;-86
2022/05/18 10:40:28;;;;;;;6.18;5.43;;;;;;;;;;5050887;28;20143;-89
2022/05/18 10:42:56;;;;;;;8.70;5.80;;;;;;;;;;5051628;28;20037;-87
2022/05/18 10:45:22;;;;;;;6.15;5.53;;;;;;;;;;5062618;28;20089;-86
2022/05/18 10:47:50;;;;;;;7.25;6.38;;;;;;;;;;5033783;28;20038;-93
2022/05/18 10:50:23;;;;;;;9.73;6.35;;;;;;;;;;5058886;28;20044;-87
2022/05/18 10:52:50;;;;;;;7.82;5.70;;;;;;;;;;5031195;28;20090;-89
2022/05/18 10:55:21;;;;;;;8.02;5.60;;;;;;;;;;5033274;28;20459;-83
2022/05/18 10:58:10;;;;;;;8.02;6.10;;;;;;;;;;5032970;28;20572;-88
2022/05/18 11:00:49;;;;;;;6.30;5.70;;;;;;;;;;5035244;28;20047;-86
2022/05/18 11:03:20;;;;;;;5.53;4.88;;;;;;;;;;5050036;28;20044;-90
2022/05/18 11:05:52;;;;;;;7.68;5.13;;;;;;;;;;5035201;28;20068;-88
2022/05/18 11:08:20;;;;;;;6.93;6.32;;;;;;;;;;5061624;28;20400;-83
2022/05/18 11:10:53;;;;;;;9.02;7.03;;;;;;;;;;5032637;28;20082;-89
2022/05/18 11:13:33;;;;;;;8.35;6.28;;;;;;;;;;5062440;28;20044;-88
2022/05/18 11:15:59;;;;;;;;;;;;;;;;;;5034631;28;20040;-88
2022/05/18 11:18:36;;;;;;;9.57;6.88;;;;;;;;;;5033469;28;19916;-84
2022/05/18 11:21:15;;;;;;;10.50;7.32;;;;;;;;;;5050611;28;20454;-88
2022/05/18 11:23:59;;;;;;;8.32;7.53;;;;;;;;;;5031772;28;20037;-89
2022/05/18 11:26:25;;;;;;;13.30;7.22;;;;;;;;;;5033502;28;20384;-88
2022/05/18 11:29:10;;;;;;;8.20;7.38;;;;;;;;;;5059243;28;20048;-86
2022/05/18 11:31:48;;;;;;;8.27;7.47;;;;;;;;;;5078990;28;20043;-89
2022/05/18 11:34:29;;;;;;;8.65;7.30;;;;;;;;;;5031020;28;20041;-90
2022/05/18 11:37:07;;;;;;;7.65;6.65;;;;;;;;;;5059328;28;20044;-89
2022/05/18 11:39:33;;;;;;;12.82;6.72;;;;;;;;;;5033273;28;20091;-89
2022/05/18 11:42:05;;;;;;;8.73;7.65;;;;;;;;;;5033452;28;20045;-93
2022/05/18 11:44:43;;;;;;;7.72;6.68;;;;;;;;;;5061577;28;20044;-87
2022/05/18 11:47:18;;;;;;;9.02;7.18;;;;;;;;;;5062176;28;20049;-88
2022/05/18 11:49:54;;;;;;;9.27;7.80;;;;;;;;;;5053950;28;20067;-89
2022/05/18 11:52:29;;;;;;;7.53;6.82;;;;;;;;;;5032342;28;20112;-88
2022/05/18 11:55:16;;;;;;;8.50;6.60;;;;;;;;;;5060115;28;20040;-85
2022/05/18 11:57:42;;;;;;;8.13;7.15;;;;;;;;;;5031612;28;20069;-86
2022/05/18 12:00:46;;;;;;;8.02;7.10;;;;;;;;;;5050183;28;20416;-84
2022/05/18 12:03:30;;;;;;;7.35;6.20;;;;;;;;;;5036880;28;20043;-90
2022/05/18 12:06:15;;;;;;;6.95;5.75;;;;;;;;;;5052225;28;20041;-89
2022/05/18 12:08:47;;;;;;;4.72;4.32;;;;;;;;;;5050666;28;20164;-88
2022/05/18 12:11:22;;;;;;;7.72;5.10;;;;;;;;;;5036012;28;20043;-86
2022/05/18 12:14:07;;;;;;;6.75;5.28;;;;;;;;;;5035945;28;20080;-82
2022/05/18 12:16:39;;;;;;;9.10;6.32;;;;;;;;;;5051061;28;20036;-89
2022/05/18 12:19:13;;;;;;;7.85;7.07;;;;;;;;;;5042331;28;20049;-92
2022/05/18 12:21:48;;;;;;;7.07;5.70;;;;;;;;;;5037558;28;20037;-87
2022/05/18 12:24:14;;;;;;;9.05;6.35;;;;;;;;;;5055429;28;20435;-90
2022/05/18 12:26:45;;;;;;;9.60;6.85;;;;;;;;;;5037426;28;20060;-85
2022/05/18 12:29:12;;;;;;;8.00;6.47;;;;;;;;;;5036988;28;20052;-85
2022/05/18 12:31:42;;;;;;;6.97;6.28;;;;;;;;;;5036651;28;20040;-88
2022/05/18 12:34:08;;;;;;;7.78;5.90;;;;;;;;;;5053494;28;20043;-89
2022/05/18 12:36:44;;;;;;;10.50;6.82;;;;;;;;;;5054081;28;20056;-89
2022/05/18 12:39:13;;;;;;;7.85;6.55;;;;;;;;;;5037461;28;20048;-86
2022/05/18 12:41:42;;;;;;;7.72;6.10;;;;;;;;;;5037085;28;20815;-88
2022/05/18 12:44:13;;;;;;;10.43;8.45;;;;;;;;;;5032912;28;20094;-87
2022/05/18 12:46:43;;;;;;;9.48;6.93;;;;;;;;;;5040536;28;20467;-89
2022/05/18 12:49:28;;;;;;;8.20;7.28;;;;;;;;;;5040993;28;20047;-88
2022/05/18 12:51:58;;;;;;;6.47;5.80;;;;;;;;;;5057549;28;20101;-89
2022/05/18 12:54:31;;;;;;;8.95;6.80;;;;;;;;;;5053829;28;20072;-83
2022/05/18 12:57:06;;;;;;;7.78;6.80;;;;;;;;;;5038639;28;20040;-90
2022/05/18 12:59:51;;;;;;;8.00;6.95;;;;;;;;;;5037560;28;20376;-86
2022/05/18 13:02:34;;;;;;;9.75;7.80;;;;;;;;;;5035235;28;20545;-91
2022/05/18 13:05:00;;;;;;;8.43;7.60;;;;;;;;;;5035644;28;20045;-86
2022/05/18 13:07:31;;;;;;;9.15;8.18;;;;;;;;;;5050242;28;20404;-87
2022/05/18 13:10:06;;;;;;;9.38;8.13;;;;;;;;;;5035882;28;20280;-85
2022/05/18 13:12:37;;;;;;;12.23;8.23;;;;;;;;;;5032972;28;20492;-91
2022/05/18 13:15:08;;;;;;;8.45;6.82;;;;;;;;;;5036517;28;20048;-88
2022/05/18 13:17:33;;;;;;;;;;;;;;;;;;5035113;28;20132;-92
2022/05/18 13:20:04;;;;;;;11.27;7.85;;;;;;;;;;5052223;28;20051;-89
2022/05/18 13:22:53;;;;;;;11.13;7.63;;;;;;;;;;5032636;28;20041;-89
2022/05/18 13:25:20;;;;;;;8.65;7.22;;;;;;;;;;5033001;28;20056;-88
2022/05/18 13:27:49;;;;;;;7.95;6.82;;;;;;;;;;5033013;28;20123;-88
2022/05/18 13:30:27;;;;;;;6.82;6.22;;;;;;;;;;5032765;28;20451;-87
2022/05/18 13:32:53;;;;;;;7.07;6.03;;;;;;;;;;5035337;28;20446;-89
2022/05/18 13:35:21;;;;;;;9.63;6.75;;;;;;;;;;5034410;28;20051;-82
2022/05/18 13:56:32;;;;;;;8.95;4.97;;;;;;;;;;5050764;28;20076;-92
2022/05/18 13:59:02;;;;;;;7.28;5.28;;;;;;;;;;5025974;28;20041;-89
2022/05/18 14:01:32;;;;;;;8.55;6.38;;;;;;;;;;5041085;28;20041;-88
2022/05/18 14:03:58;;;;;;;7.20;6.25;;;;;;;;;;5023724;28;20044;-81
2022/05/18 14:06:25;;;;;;;7.75;6.90;;;;;;;;;;5035453;28;20417;-83
2022/05/18 14:08:58;;;;;;;7.55;6.32;;;;;;;;;;5018543;28;20053;-81
2022/05/18 14:11:25;;;;;;;7.88;7.07;;;;;;;;;;5013573;28;20044;-86
2022/05/18 14:13:54;;;;;;;7.97;6.70;;;;;;;;;;5013951;28;20419;-81
2022/05/18 14:16:30;;;;;;;8.18;6.80;;;;;;;;;;5013575;28;20319;-82
2022/05/18 14:18:56;;;;;;;7.45;6.75;;;;;;;;;;5028063;28;20464;-85
2022/05/18 14:21:24;;;;;;;9.80;7.20;;;;;;;;;;5030263;28;20098;-83
2022/05/18 14:24:06;;;;;;;9.80;8.20;;;;;;;;;;5013621;28;20048;-86
2022/05/18 14:26:52;;;;;;;10.68;9.35;;;;;;;;;;5011047;28;20056;-90
2022/05/18 14:29:30;;;;;;;12.48;9.90;;;;;;;;;;5029742;28;20041;-83
2022/05/18 14:31:58;;;;;;;15.45;13.82;;;;;;;;;;5013508;28;20048;-84
2022/05/18 14:34:49;;;;;;;31.45;24.40;;;;;;;;;;5014848;28;20048;-81
2022/05/18 14:37:21;;;;;;;28.75;22.75;;;;;;;;;;5031091;28;20412;-82
2022/05/18 14:39:48;;;;;;;30.25;22.30;;;;;;;;;;5032257;28;20080;-82
2022/05/18 14:42:14;;;;;;;26.90;21.00;;;;;;;;;;5030793;28;20049;-82
2022/05/18 14:44:44;;;;;;;26.00;22.08;;;;;;;;;;5031549;28;20087;-83
2022/05/18 14:47:23;;;;;;;30.50;23.70;;;;;;;;;;5032228;28;20049;-85
2022/05/18 14:49:53;;;;;;;32.92;23.52;;;;;;;;;;5015242;28;20045;-85
2022/05/18 14:52:19;;;;;;;;;;;;;;;;;;5032884;28;20044;-83
2022/05/18 14:54:50;;;;;;;27.48;21.02;;;;;;;;;;5013758;28;19924;-82
2022/05/18 14:57:33;;;;;;;30.60;24.63;;;;;;;;;;5014492;28;20060;-82
2022/05/18 15:00:06;;;;;;;29.67;23.10;;;;;;;;;;5015789;28;20076;-84
2022/05/18 15:02:33;;;;;;;28.23;23.02;;;;;;;;;;5015102;28;20049;-83
2022/05/18 15:04:59;;;;;;;28.83;22.33;;;;;;;;;;5031572;28;20036;-85
2022/05/18 15:07:27;;;;;;;29.73;24.13;;;;;;;;;;5013886;28;20037;-85
2022/05/18 15:09:55;;;;;;;30.23;24.33;;;;;;;;;;5013889;28;20080;-83
2022/05/18 15:12:32;;;;;;;30.85;22.38;;;;;;;;;;5015076;28;20049;-84
2022/05/18 15:15:11;;;;;;;28.00;22.63;;;;;;;;;;5014298;28;20044;-79
2022/05/18 15:17:55;;;;;;;29.27;22.90;;;;;;;;;;5014851;28;20124;-78
2022/05/18 15:20:26;;;;;;;28.70;22.48;;;;;;;;;;5030127;28;20037;-80
2022/05/18 15:22:52;;;;;;;28.17;23.23;;;;;;;;;;5030298;28;20492;-80
2022/05/18 15:25:33;;;;;;;28.95;23.45;;;;;;;;;;5029438;28;20115;-82
2022/05/18 15:27:59;;;;;;;30.38;23.13;;;;;;;;;;5028216;28;20045;-81